Teterboro, New Jersey
Current Conditions -  °F | °C
As of 9:51 PM on Saturday 20 Dec 2014 (Local Time) from KTEB Reporting Station
Overcast Overcast  
Wind Chill: 32°   Ceiling: 3000
Heat Index: 32°   Visibility: 10mi
Dew Point: 21°   Wind: 3mph
Humidity: 64%   Direction: 30°NNE
Pressure: 30.3"   Gusts: NA
Location:  40.86°N, 74.06°W
Report Text: KTEB 210251Z 03003KT 10SM OVC030 00/M06 A3030 RMK AO2 SLP258 T00001061 53003
Loading
Personal Weather Stations






























Interactive Weather Map New forecast layout! Learn more

10-Day Weather Forecast

Advertisements
Track Severe Weather on mobile